createdAt,value
2022-10-20T00:00:00.305Z,0.0
2022-10-20T00:05:00.309Z,0.0
2022-10-20T00:10:00.317Z,0.0
2022-10-20T00:15:00.309Z,0.0
2022-10-20T00:20:00.311Z,0.0
2022-10-20T00:25:00.339Z,0.0
2022-10-20T00:30:00.429Z,0.0
2022-10-20T00:35:00.352Z,0.0
2022-10-20T00:40:00.309Z,0.0
2022-10-20T00:45:00.312Z,0.0
2022-10-20T00:50:00.392Z,0.0
2022-10-20T00:55:00.310Z,0.0
2022-10-20T01:00:00.357Z,0.0
2022-10-20T01:05:00.313Z,0.0
2022-10-20T01:10:00.464Z,0.0
2022-10-20T01:15:00.285Z,0.0
2022-10-20T01:20:00.317Z,0.0
2022-10-20T01:25:00.335Z,0.0
2022-10-20T01:30:00.326Z,1.4
2022-10-20T01:35:00.308Z,0.0
2022-10-20T01:40:00.349Z,0.0
2022-10-20T01:45:00.330Z,0.0
2022-10-20T01:50:00.298Z,0.0
2022-10-20T01:55:00.309Z,0.0
2022-10-20T02:00:00.359Z,0.0
2022-10-20T02:05:00.273Z,0.0
2022-10-20T02:10:00.518Z,0.0
2022-10-20T02:15:00.329Z,0.0
2022-10-20T02:20:00.314Z,0.0
2022-10-20T02:25:00.401Z,0.0
2022-10-20T02:30:00.328Z,0.0
2022-10-20T02:35:07.039Z,0.0
2022-10-20T02:40:00.319Z,0.0
2022-10-20T02:45:00.312Z,0.0
2022-10-20T02:50:00.309Z,0.0
2022-10-20T02:55:00.330Z,0.0
2022-10-20T03:00:00.358Z,0.0
2022-10-20T03:05:00.283Z,0.0
2022-10-20T03:10:00.355Z,1.8
2022-10-20T03:15:00.331Z,0.0
2022-10-20T03:20:00.314Z,2.2
2022-10-20T03:25:00.321Z,0.0
2022-10-20T03:30:00.366Z,2.5
2022-10-20T03:35:00.268Z,1.8
2022-10-20T03:40:00.355Z,1.8
2022-10-20T03:45:00.315Z,4.0
2022-10-20T03:50:00.589Z,3.2
2022-10-20T03:55:00.277Z,3.6
2022-10-20T04:00:00.438Z,5.0
2022-10-20T04:05:00.295Z,2.5
2022-10-20T04:10:00.327Z,6.1
2022-10-20T04:15:00.319Z,4.3
2022-10-20T04:20:00.307Z,2.5
2022-10-20T04:25:00.314Z,2.5
2022-10-20T04:30:00.371Z,3.2
2022-10-20T04:35:00.308Z,2.9
2022-10-20T04:40:00.351Z,4.0
2022-10-20T04:45:00.530Z,2.2
2022-10-20T04:50:00.343Z,1.8
2022-10-20T04:55:00.368Z,1.8
2022-10-20T05:00:00.384Z,0.0
2022-10-20T05:05:00.380Z,0.0
2022-10-20T05:10:00.317Z,0.0
2022-10-20T05:15:00.324Z,1.8
2022-10-20T05:20:00.353Z,2.9
2022-10-20T05:25:35.896Z,5.0
2022-10-20T05:30:00.380Z,2.9
2022-10-20T05:35:00.294Z,0.0
2022-10-20T05:40:00.333Z,0.0
2022-10-20T05:45:00.322Z,0.0
2022-10-20T05:50:00.321Z,0.0
2022-10-20T05:55:00.313Z,0.0
2022-10-20T06:00:00.490Z,0.0
2022-10-20T06:05:00.303Z,0.0
2022-10-20T06:10:00.379Z,0.0
2022-10-20T06:15:00.482Z,0.0
2022-10-20T06:20:00.326Z,2.2
2022-10-20T06:25:00.326Z,3.2
2022-10-20T06:30:00.347Z,2.9
2022-10-20T06:35:00.334Z,2.9
2022-10-20T06:40:00.352Z,4.7
2022-10-20T06:45:00.320Z,4.7
2022-10-20T06:50:00.366Z,7.2
2022-10-20T06:55:00.369Z,4.7
2022-10-20T07:00:00.328Z,4.0
2022-10-20T07:05:00.351Z,4.7
2022-10-20T07:10:00.325Z,4.0
2022-10-20T07:15:00.333Z,6.5
2022-10-20T07:20:00.308Z,7.6
2022-10-20T07:25:00.318Z,10.4
2022-10-20T07:30:00.321Z,9.7
2022-10-20T07:35:00.271Z,7.2
2022-10-20T07:40:00.314Z,8.3
2022-10-20T07:45:00.336Z,6.5
2022-10-20T07:50:00.307Z,5.0
2022-10-20T07:55:24.151Z,4.0
2022-10-20T08:00:00.357Z,2.2
2022-10-20T08:05:00.282Z,8.3
2022-10-20T08:10:00.496Z,4.7
2022-10-20T08:15:00.340Z,7.6
2022-10-20T08:20:03.857Z,12.2
2022-10-20T08:25:00.375Z,11.2
2022-10-20T08:30:23.711Z,8.6
2022-10-20T08:35:00.280Z,14.4
2022-10-20T08:40:00.414Z,7.2
2022-10-20T08:45:00.318Z,7.9
2022-10-20T08:50:00.421Z,9.0
2022-10-20T08:55:00.326Z,7.6
2022-10-20T09:00:09.299Z,5.0
2022-10-20T09:05:00.300Z,7.2
2022-10-20T09:10:00.328Z,4.7
2022-10-20T09:15:00.338Z,6.1
2022-10-20T09:20:00.409Z,15.8
2022-10-20T09:25:00.318Z,14.0
2022-10-20T09:30:00.331Z,15.1
2022-10-20T09:35:00.306Z,12.2
2022-10-20T09:40:00.458Z,11.9
2022-10-20T09:45:00.315Z,7.2
2022-10-20T09:50:01.670Z,27.4
2022-10-20T09:55:00.293Z,9.0
2022-10-20T10:00:35.703Z,16.9
2022-10-20T10:05:00.320Z,25.6
2022-10-20T10:10:08.688Z,16.9
2022-10-20T10:15:00.324Z,17.3
2022-10-20T10:20:00.319Z,22.0
2022-10-20T10:25:00.337Z,27.0
2022-10-20T10:30:00.374Z,20.9
2022-10-20T10:35:00.305Z,11.9
2022-10-20T10:40:00.312Z,13.0
2022-10-20T10:45:00.326Z,18.0
2022-10-20T10:50:00.315Z,22.7
2022-10-20T10:55:00.311Z,13.3
2022-10-20T11:00:00.363Z,13.0
2022-10-20T11:05:00.321Z,19.1
2022-10-20T11:10:00.425Z,13.3
2022-10-20T11:15:00.312Z,18.0
2022-10-20T11:20:00.309Z,12.2
2022-10-20T11:25:00.299Z,15.1
2022-10-20T11:30:00.318Z,22.0
2022-10-20T11:35:00.350Z,14.8
2022-10-20T11:40:08.912Z,13.0
2022-10-20T11:45:00.324Z,15.5
2022-10-20T11:50:00.335Z,4.7
2022-10-20T11:55:00.343Z,22.7
2022-10-20T12:00:00.365Z,19.8
2022-10-20T12:05:00.300Z,22.7
2022-10-20T12:10:00.311Z,16.6
2022-10-20T12:15:00.321Z,21.6
2022-10-20T12:20:00.342Z,16.9
2022-10-20T12:25:00.319Z,18.4
2022-10-20T12:30:00.338Z,21.6
2022-10-20T12:35:00.340Z,19.1
2022-10-20T12:40:00.386Z,15.5
2022-10-20T12:45:02.814Z,21.2
2022-10-20T12:50:00.351Z,16.9
2022-10-20T12:55:00.345Z,10.1
2022-10-20T13:00:00.379Z,16.6
2022-10-20T13:05:00.323Z,11.9
2022-10-20T13:10:04.594Z,14.8
2022-10-20T13:15:00.351Z,16.9
2022-10-20T13:20:02.175Z,23.4
2022-10-20T13:25:00.353Z,16.6
2022-10-20T13:30:00.333Z,20.5
2022-10-20T13:35:00.374Z,11.5
2022-10-20T13:40:00.339Z,11.5
2022-10-20T13:45:00.363Z,16.9
2022-10-20T13:50:00.325Z,22.0
2022-10-20T13:55:00.353Z,15.1
2022-10-20T14:00:00.331Z,3.6
2022-10-20T14:05:00.324Z,16.2
2022-10-20T14:10:00.971Z,14.0
2022-10-20T14:15:02.558Z,7.2
2022-10-20T14:20:00.329Z,8.6
2022-10-20T14:25:00.311Z,6.5
2022-10-20T14:30:00.362Z,13.7
2022-10-20T14:35:00.312Z,5.4
2022-10-20T14:40:00.322Z,13.7
2022-10-20T14:45:00.360Z,4.3
2022-10-20T14:50:00.325Z,4.7
2022-10-20T14:55:00.306Z,12.2
2022-10-20T15:00:00.357Z,6.1
2022-10-20T15:05:00.318Z,8.3
2022-10-20T15:10:05.729Z,12.2
2022-10-20T15:15:00.381Z,7.9
2022-10-20T15:20:00.352Z,4.3
2022-10-20T15:25:00.370Z,12.2
2022-10-20T15:30:00.396Z,4.7
2022-10-20T15:35:00.288Z,10.8
2022-10-20T15:40:00.321Z,7.6
2022-10-20T15:45:00.345Z,8.6
2022-10-20T15:55:00.301Z,2.9
2022-10-20T16:00:00.707Z,0.0
2022-10-20T16:05:00.296Z,7.2
2022-10-20T16:10:00.363Z,15.8
2022-10-20T16:15:00.787Z,5.8
2022-10-20T16:20:00.363Z,3.6
2022-10-20T16:25:00.321Z,3.2
2022-10-20T16:30:00.338Z,6.1
2022-10-20T16:35:13.233Z,4.0
2022-10-20T16:40:00.353Z,7.2
2022-10-20T16:45:00.703Z,1.4
2022-10-20T16:50:02.363Z,2.5
2022-10-20T16:55:00.296Z,8.3
2022-10-20T17:00:00.348Z,1.8
2022-10-20T17:05:05.431Z,4.0
2022-10-20T17:10:00.344Z,10.8
2022-10-20T17:15:00.317Z,5.8
2022-10-20T17:20:00.340Z,7.6
2022-10-20T17:25:00.282Z,6.8
2022-10-20T17:30:00.328Z,14.0
2022-10-20T17:35:00.309Z,6.8
2022-10-20T17:40:00.335Z,10.1
2022-10-20T17:45:00.366Z,5.8
2022-10-20T17:50:00.539Z,4.0
2022-10-20T17:55:00.344Z,7.9
2022-10-20T18:00:13.105Z,5.0
2022-10-20T18:05:00.283Z,5.4
2022-10-20T18:10:00.343Z,10.1
2022-10-20T18:15:00.590Z,2.5
2022-10-20T18:20:00.347Z,5.8
2022-10-20T18:25:00.330Z,3.6
2022-10-20T18:30:00.338Z,9.4
2022-10-20T18:35:00.330Z,15.5
2022-10-20T18:40:00.297Z,9.4
2022-10-20T18:45:00.309Z,4.7
2022-10-20T18:50:00.340Z,12.6
2022-10-20T18:55:00.344Z,8.3
2022-10-20T19:00:00.378Z,11.2
2022-10-20T19:05:00.360Z,8.3
2022-10-20T19:10:00.330Z,6.8
2022-10-20T19:15:00.320Z,3.2
2022-10-20T19:20:00.321Z,4.7
2022-10-20T19:25:00.313Z,7.6
2022-10-20T19:30:00.370Z,4.0
2022-10-20T19:35:00.305Z,15.1
2022-10-20T19:40:00.361Z,7.6
2022-10-20T19:45:00.303Z,9.7
2022-10-20T19:50:00.336Z,9.7
2022-10-20T19:55:00.346Z,2.5
2022-10-20T20:00:00.329Z,2.2
2022-10-20T20:05:00.307Z,4.7
2022-10-20T20:10:00.364Z,2.2
2022-10-20T20:15:00.298Z,7.2
2022-10-20T20:20:00.390Z,1.4
2022-10-20T20:25:00.980Z,0.0
2022-10-20T20:30:00.340Z,3.6
2022-10-20T20:35:00.631Z,2.9
2022-10-20T20:40:00.361Z,0.0
2022-10-20T20:45:00.297Z,3.2
2022-10-20T20:50:00.320Z,4.0
2022-10-20T20:55:00.385Z,4.7
2022-10-20T21:00:00.360Z,2.9
2022-10-20T21:05:00.345Z,6.8
2022-10-20T21:10:00.306Z,4.7
2022-10-20T21:15:00.315Z,4.7
2022-10-20T21:20:00.333Z,5.0
2022-10-20T21:25:00.317Z,4.7
2022-10-20T21:30:00.388Z,0.0
2022-10-20T21:35:00.296Z,1.8
2022-10-20T21:40:00.340Z,1.4
2022-10-20T21:45:00.322Z,3.6
2022-10-20T21:50:00.318Z,7.2
2022-10-20T21:55:00.310Z,4.7
2022-10-20T22:00:00.446Z,4.3
2022-10-20T22:05:00.285Z,7.2
2022-10-20T22:10:00.354Z,7.9
2022-10-20T22:15:00.311Z,12.2
2022-10-20T22:20:00.292Z,13.7
2022-10-20T22:25:00.314Z,10.8
2022-10-20T22:30:00.342Z,6.8
2022-10-20T22:35:00.368Z,14.4
2022-10-20T22:40:00.343Z,14.8
2022-10-20T22:45:00.298Z,11.9
2022-10-20T22:50:00.353Z,3.6
2022-10-20T22:55:00.314Z,8.6
2022-10-20T23:00:00.338Z,8.6
2022-10-20T23:05:00.295Z,10.8
2022-10-20T23:10:00.298Z,9.4
2022-10-20T23:15:00.306Z,6.8
2022-10-20T23:20:00.394Z,6.1
2022-10-20T23:25:00.323Z,10.4
2022-10-20T23:30:00.368Z,9.0
2022-10-20T23:35:00.294Z,7.9
2022-10-20T23:40:00.337Z,6.1
2022-10-20T23:45:00.312Z,3.6
2022-10-20T23:50:00.352Z,4.7
2022-10-20T23:55:00.301Z,1.8
